Time;durP1;ratioP1;P1;durP2;ratioP2;P2;SDS_P1;SDS_P2;PMS_P1;PMS_P2;Temp;Humidity;BMP_temperature;BMP_pressure;BME280_temperature;BME280_humidity;BME280_pressure;Samples;Min_cycle;Max_cycle;Signal;HPM_P1;HPM_P2
2022/06/12 00:01:18;;;;;;;4.53;1.25;;;20.20;91.80;;;;;;5050411;28;20680;-39
2022/06/12 00:03:47;;;;;;;3.00;1.70;;;20.20;91.80;;;;;;5013174;28;20218;-39
2022/06/12 00:06:16;;;;;;;3.47;0.90;;;20.10;91.60;;;;;;5026550;28;20239;-39
2022/06/12 00:08:46;;;;;;;3.83;1.27;;;20.20;91.60;;;;;;5042895;28;20197;-38
2022/06/12 00:11:23;;;;;;;4.13;1.20;;;20.10;91.50;;;;;;5031109;28;20209;-39
2022/06/12 00:13:55;;;;;;;3.40;1.00;;;20.10;91.50;;;;;;5032674;28;20213;-38
2022/06/12 00:16:24;;;;;;;3.72;1.15;;;20.10;91.40;;;;;;5048045;28;20219;-39
2022/06/12 00:18:52;;;;;;;3.95;1.20;;;20.00;91.40;;;;;;5041325;28;20739;-39
2022/06/12 00:21:20;;;;;;;2.15;0.90;;;20.00;91.40;;;;;;5031912;28;20201;-39
2022/06/12 00:23:56;;;;;;;3.00;1.30;;;20.00;91.40;;;;;;5030626;28;20228;-39
2022/06/12 00:26:39;;;;;;;3.75;1.50;;;19.90;91.40;;;;;;5032037;28;20779;-41
2022/06/12 00:29:19;;;;;;;3.08;1.20;;;19.80;91.40;;;;;;5032069;28;20209;-40
2022/06/12 00:31:52;;;;;;;5.20;1.42;;;19.80;91.40;;;;;;5030832;28;20636;-40
2022/06/12 00:34:21;;;;;;;3.60;1.30;;;19.70;91.40;;;;;;5032154;28;20193;-40
2022/06/12 00:36:48;;;;;;;3.00;1.08;;;19.70;91.40;;;;;;5032013;28;20201;-40
2022/06/12 00:39:16;;;;;;;3.95;1.20;;;19.70;91.40;;;;;;5034618;28;20196;-40
2022/06/12 00:41:49;;;;;;;2.90;1.15;;;19.60;91.40;;;;;;5041404;28;20212;-40
2022/06/12 00:44:24;;;;;;;2.47;0.90;;;19.60;91.40;;;;;;5039433;28;20221;-40
2022/06/12 00:47:13;;;;;;;4.57;1.10;;;19.60;91.40;;;;;;5025567;28;20212;-40
2022/06/12 00:49:51;;;;;;;3.80;1.27;;;19.60;91.40;;;;;;5035140;28;20263;-41
2022/06/12 00:52:42;;;;;;;4.75;1.00;;;19.50;91.60;;;;;;5043957;28;20299;-39
2022/06/12 00:55:27;;;;;;;4.55;1.40;;;19.50;91.30;;;;;;5030354;28;20197;-40
2022/06/12 00:58:18;;;;;;;5.15;1.20;;;19.40;91.30;;;;;;5012612;28;20232;-38
2022/06/12 01:00:47;;;;;;;3.88;1.13;;;19.40;91.30;;;;;;5030785;28;20299;-38
2022/06/12 01:03:18;;;;;;;3.38;1.35;;;19.30;91.20;;;;;;5030778;28;20311;-38
2022/06/12 01:08:36;;;;;;;3.20;0.90;;;19.30;91.30;;;;;;5018914;28;20243;-39
2022/06/12 01:11:11;;;;;;;5.40;1.40;;;19.30;91.30;;;;;;5030734;28;20278;-39
2022/06/12 01:13:44;;;;;;;3.47;1.05;;;19.20;91.20;;;;;;5022040;28;20200;-39
2022/06/12 01:16:16;;;;;;;14.18;1.85;;;19.20;91.30;;;;;;5030519;28;20286;-39
2022/06/12 01:18:50;;;;;;;4.63;1.33;;;19.10;91.30;;;;;;5033830;28;20201;-39
2022/06/12 01:21:39;;;;;;;3.97;1.40;;;19.10;91.30;;;;;;5029985;28;20706;-39
2022/06/12 01:24:31;;;;;;;5.78;1.45;;;19.00;91.30;;;;;;5030666;28;20252;-39
2022/06/12 01:28:02;;;;;;;3.28;1.38;;;19.00;91.40;;;;;;5029270;28;20288;-40
2022/06/12 01:30:50;;;;;;;3.20;1.10;;;18.90;91.40;;;;;;4985645;28;20200;-39
2022/06/12 01:33:35;;;;;;;3.88;1.67;;;18.90;91.60;;;;;;5013244;28;20244;-39
2022/06/12 01:36:09;;;;;;;3.40;1.42;;;18.80;91.50;;;;;;5030601;28;20737;-38
2022/06/12 01:39:04;;;;;;;3.58;1.52;;;18.80;91.60;;;;;;5011594;28;20256;-39
2022/06/12 01:41:34;;;;;;;4.28;1.52;;;18.80;91.80;;;;;;5015358;28;20232;-39
2022/06/12 01:44:15;;;;;;;3.90;1.33;;;18.70;91.60;;;;;;5029887;28;20220;-39
2022/06/12 01:46:59;;;;;;;3.38;1.63;;;18.60;91.70;;;;;;5028781;28;20320;-39
2022/06/12 01:49:39;;;;;;;4.05;1.40;;;18.60;91.80;;;;;;5049722;28;20205;-39
2022/06/12 01:52:30;;;;;;;6.55;1.52;;;18.50;91.70;;;;;;5027696;28;20299;-39
2022/06/12 01:55:16;;;;;;;4.75;1.90;;;18.50;91.80;;;;;;5028810;28;20690;-39
2022/06/12 01:58:00;;;;;;;3.50;1.45;;;18.40;91.90;;;;;;5028453;28;20232;-39
2022/06/12 02:00:33;;;;;;;2.22;1.30;;;18.40;91.90;;;;;;5028325;28;20201;-39
2022/06/12 02:03:03;;;;;;;4.28;1.52;;;18.30;92.00;;;;;;5027778;28;20275;-40
2022/06/12 02:05:42;;;;;;;3.70;1.70;;;18.20;91.90;;;;;;5026864;28;20751;-39
2022/06/12 02:08:36;;;;;;;4.43;1.50;;;18.20;91.90;;;;;;5028905;28;20303;-40
2022/06/12 02:14:01;;;;;;;2.05;1.30;;;18.10;91.90;;;;;;5029005;28;20611;-40
2022/06/12 02:16:35;;;;;;;5.28;1.80;;;18.00;91.80;;;;;;5025648;28;20582;-40
2022/06/12 02:19:11;;;;;;;4.65;1.60;;;18.00;91.90;;;;;;5043773;28;20229;-40
2022/06/12 02:21:45;;;;;;;5.13;1.60;;;18.00;92.00;;;;;;5046001;28;20372;-41
2022/06/12 02:24:22;;;;;;;4.07;1.63;;;17.90;92.00;;;;;;5028267;28;20282;-41
2022/06/12 02:27:09;;;;;;;6.35;1.92;;;17.80;91.90;;;;;;5028870;28;20208;-41
2022/06/12 02:30:09;;;;;;;4.72;1.70;;;17.80;92.10;;;;;;5008881;28;20288;-40
2022/06/12 02:32:57;;;;;;;4.07;1.50;;;17.70;92.10;;;;;;5007395;28;20205;-41
2022/06/12 02:35:32;;;;;;;5.57;1.80;;;17.70;92.00;;;;;;5039252;28;20629;-40
2022/06/12 02:38:09;;;;;;;4.47;1.50;;;17.70;92.00;;;;;;5048287;28;20212;-41
2022/06/12 02:40:53;;;;;;;3.90;1.92;;;17.60;92.10;;;;;;5047908;28;20191;-41
2022/06/12 02:43:27;;;;;;;7.88;1.88;;;17.50;92.20;;;;;;5007302;28;20252;-40
2022/06/12 02:46:10;;;;;;;4.75;1.30;;;17.50;92.10;;;;;;5023665;28;20721;-40
2022/06/12 02:48:37;;;;;;;4.07;1.70;;;17.50;92.10;;;;;;5044807;28;20196;-40
2022/06/12 02:51:16;;;;;;;4.95;1.60;;;17.40;92.10;;;;;;5046661;28;20207;-40
2022/06/12 02:54:04;;;;;;;3.70;1.40;;;17.40;92.20;;;;;;5040194;28;20253;-40
2022/06/12 02:56:43;;;;;;;3.75;1.42;;;17.40;92.20;;;;;;5048179;28;20258;-40
2022/06/12 02:59:39;;;;;;;2.90;1.63;;;17.40;92.30;;;;;;5035344;28;20303;-41
2022/06/12 03:02:26;;;;;;;3.85;1.48;;;17.30;92.40;;;;;;5028211;28;20270;-40
2022/06/12 03:04:58;;;;;;;3.92;1.30;;;17.30;92.20;;;;;;5027371;28;20244;-39
2022/06/12 03:07:28;;;;;;;2.88;1.50;;;17.20;92.10;;;;;;5028450;28;20199;-39
2022/06/12 03:10:03;;;;;;;2.58;1.30;;;17.20;92.10;;;;;;5028580;28;20216;-40
2022/06/12 03:12:32;;;;;;;4.55;1.75;;;17.10;92.20;;;;;;5009471;28;20692;-40
2022/06/12 03:15:04;;;;;;;3.03;1.40;;;17.10;92.10;;;;;;5011940;28;20200;-40
2022/06/12 03:17:31;;;;;;;3.25;1.80;;;17.10;92.10;;;;;;5027393;28;20248;-40
2022/06/12 03:19:59;;;;;;;4.78;1.60;;;17.00;92.10;;;;;;5027870;28;20331;-40
2022/06/12 03:22:46;;;;;;;3.45;1.70;;;17.00;92.10;;;;;;5027541;28;20710;-40
2022/06/12 03:25:42;;;;;;;3.58;1.60;;;17.00;92.20;;;;;;5028500;28;20232;-40
2022/06/12 03:28:40;;;;;;;5.57;1.70;;;17.00;92.10;;;;;;5026853;28;20201;-41
2022/06/12 03:31:15;;;;;;;5.10;1.60;;;16.90;92.30;;;;;;5027610;28;20307;-41
2022/06/12 03:34:16;;;;;;;3.40;1.50;;;16.90;92.30;;;;;;5028700;28;20212;-40
2022/06/12 03:36:57;;;;;;;4.82;1.65;;;16.80;92.30;;;;;;5017040;28;20205;-40
2022/06/12 03:39:34;;;;;;;4.55;2.30;;;16.80;92.30;;;;;;5010981;28;20307;-40
2022/06/12 03:42:12;;;;;;;5.95;1.88;;;16.80;92.40;;;;;;5012143;28;20205;-41
2022/06/12 03:44:50;;;;;;;3.15;1.63;;;16.80;92.50;;;;;;5030097;28;20523;-39
2022/06/12 03:47:30;;;;;;;4.95;1.63;;;16.80;92.40;;;;;;5036745;28;20208;-39
2022/06/12 03:50:33;;;;;;;5.18;1.60;;;16.80;92.50;;;;;;5032181;28;20205;-39
2022/06/12 03:53:23;;;;;;;4.55;1.90;;;16.70;92.50;;;;;;5024762;28;20209;-40
2022/06/12 03:59:01;;;;;;;5.00;1.65;;;16.70;92.50;;;;;;5051461;28;20204;-39
2022/06/12 04:01:31;;;;;;;3.53;1.40;;;16.60;92.70;;;;;;5050996;28;20200;-39
2022/06/12 04:04:04;;;;;;;5.63;1.70;;;16.60;92.60;;;;;;5051364;28;20243;-39
2022/06/12 04:06:32;;;;;;;3.85;1.88;;;16.60;92.60;;;;;;5042906;28;20605;-39
2022/06/12 04:09:12;;;;;;;5.07;1.77;;;16.60;92.60;;;;;;5031179;28;20223;-39
2022/06/12 04:11:41;;;;;;;2.75;1.33;;;16.60;92.70;;;;;;5029768;28;20221;-39
2022/06/12 04:14:16;;;;;;;4.05;1.60;;;16.70;92.70;;;;;;5031126;28;20209;-39
2022/06/12 04:16:47;;;;;;;3.50;1.70;;;16.70;92.80;;;;;;5031063;28;20207;-39
2022/06/12 04:19:21;;;;;;;2.85;1.65;;;16.70;92.70;;;;;;5031042;28;20208;-40
2022/06/12 04:22:14;;;;;;;3.60;1.25;;;16.70;92.80;;;;;;5030859;28;20213;-39
2022/06/12 04:24:48;;;;;;;4.00;1.80;;;16.80;92.90;;;;;;5030846;28;20710;-39
2022/06/12 04:27:33;;;;;;;5.20;1.92;;;16.80;92.70;;;;;;5030966;28;20205;-39
2022/06/12 04:30:14;;;;;;;4.35;1.42;;;16.80;92.70;;;;;;5030678;28;20244;-39
2022/06/12 04:32:42;;;;;;;4.35;1.55;;;16.80;92.60;;;;;;5031160;28;20201;-39
2022/06/12 04:35:09;;;;;;;4.85;1.70;;;16.80;92.70;;;;;;5030550;28;20201;-39
2022/06/12 04:37:37;;;;;;;3.78;1.50;;;16.80;92.70;;;;;;5031036;28;20274;-38
2022/06/12 04:40:07;;;;;;;4.50;1.40;;;16.80;92.70;;;;;;5030579;28;20232;-39
2022/06/12 04:42:34;;;;;;;4.95;1.50;;;16.80;92.80;;;;;;5030875;28;20574;-39
2022/06/12 04:45:05;;;;;;;3.38;1.60;;;16.80;92.80;;;;;;5019817;28;20216;-39
2022/06/12 04:47:33;;;;;;;3.67;1.65;;;16.90;92.90;;;;;;5024884;28;20200;-39
2022/06/12 04:50:02;;;;;;;4.63;1.75;;;16.90;92.90;;;;;;5049157;28;20307;-39
2022/06/12 04:52:30;;;;;;;4.22;1.55;;;16.90;93.00;;;;;;5030667;28;20208;-39
2022/06/12 04:54:57;;;;;;;4.55;1.83;;;17.00;93.00;;;;;;5030503;28;20209;-39
2022/06/12 04:57:25;;;;;;;3.13;1.40;;;17.00;93.10;;;;;;5029862;28;20335;-38
2022/06/12 04:59:52;;;;;;;3.30;1.58;;;17.00;93.00;;;;;;5027458;28;20682;-39
2022/06/12 05:02:20;;;;;;;5.85;1.88;;;17.00;93.00;;;;;;5020245;28;20762;-39
2022/06/12 05:04:50;;;;;;;4.80;1.73;;;17.10;93.10;;;;;;5037033;28;20225;-39
2022/06/12 05:07:20;;;;;;;5.47;1.65;;;17.10;93.10;;;;;;5022497;28;20202;-38
2022/06/12 05:09:47;;;;;;;4.35;1.63;;;17.10;93.20;;;;;;5024436;28;20671;-39
2022/06/12 05:12:15;;;;;;;5.88;1.63;;;17.20;93.20;;;;;;5060804;28;20575;-39
2022/06/12 05:14:46;;;;;;;2.22;1.08;;;17.30;93.20;;;;;;5029012;28;20221;-39
2022/06/12 05:17:22;;;;;;;7.22;1.90;;;17.30;93.20;;;;;;5029904;28;20205;-39
2022/06/12 05:19:50;;;;;;;4.72;1.50;;;17.30;93.30;;;;;;5023594;28;20208;-39
2022/06/12 05:22:21;;;;;;;5.78;1.85;;;17.40;93.20;;;;;;5028174;28;20346;-39
2022/06/12 05:24:52;;;;;;;4.97;1.60;;;17.50;93.30;;;;;;5027694;28;20225;-39
2022/06/12 05:27:22;;;;;;;5.57;1.50;;;17.50;93.30;;;;;;5028142;28;20201;-39
2022/06/12 05:29:50;;;;;;;4.15;1.55;;;17.50;93.30;;;;;;5028730;28;20686;-39
2022/06/12 05:32:21;;;;;;;6.90;1.63;;;17.60;93.30;;;;;;5027705;28;20231;-39
2022/06/12 05:34:52;;;;;;;6.22;1.70;;;17.60;93.30;;;;;;5029454;28;20267;-38
2022/06/12 05:37:20;;;;;;;5.40;1.50;;;17.70;93.40;;;;;;5027824;28;20228;-38
2022/06/12 05:39:48;;;;;;;4.72;1.80;;;17.70;93.40;;;;;;5020848;28;21603;-38
2022/06/12 05:42:17;;;;;;;6.15;1.63;;;17.70;93.50;;;;;;5021222;28;20641;-37
2022/06/12 05:44:45;;;;;;;5.13;1.80;;;17.80;93.50;;;;;;5014591;28;20628;-39
2022/06/12 05:47:13;;;;;;;5.03;1.65;;;17.80;93.60;;;;;;5019589;28;20213;-40
2022/06/12 05:49:43;;;;;;;5.93;1.75;;;17.90;93.70;;;;;;5021484;28;20267;-40
2022/06/12 05:52:12;;;;;;;5.68;1.88;;;17.90;93.70;;;;;;5028696;28;20219;-40
2022/06/12 05:54:39;;;;;;;7.38;1.88;;;18.00;93.80;;;;;;5026532;28;20208;-40
2022/06/12 05:57:07;;;;;;;6.60;2.20;;;18.00;93.80;;;;;;5015302;28;20241;-42
2022/06/12 05:59:34;;;;;;;4.68;1.90;;;18.00;93.80;;;;;;5006973;28;20232;-40
2022/06/12 06:02:02;;;;;;;6.40;1.48;;;18.00;93.90;;;;;;5019610;28;20278;-40
2022/06/12 06:04:29;;;;;;;6.82;2.00;;;18.10;94.00;;;;;;5028617;28;20236;-40
2022/06/12 06:07:02;;;;;;;5.43;1.52;;;18.10;94.30;;;;;;5026958;28;20723;-40
2022/06/12 06:09:31;;;;;;;6.10;1.95;;;18.20;94.00;;;;;;5026128;28;20574;-41
2022/06/12 06:12:03;;;;;;;7.30;2.40;;;18.20;94.10;;;;;;5026815;28;20707;-41
2022/06/12 06:14:31;;;;;;;6.75;1.77;;;18.30;94.20;;;;;;5017389;28;20236;-41
2022/06/12 06:17:04;;;;;;;5.65;2.22;;;18.30;94.20;;;;;;5026684;28;20300;-41
2022/06/12 06:19:32;;;;;;;9.05;2.25;;;18.40;94.30;;;;;;5024440;28;20293;-40
2022/06/12 06:21:59;;;;;;;8.27;2.05;;;18.40;94.20;;;;;;5023124;28;20209;-40
2022/06/12 06:24:26;;;;;;;7.10;2.15;;;18.50;94.30;;;;;;5026570;28;20220;-40
2022/06/12 06:26:56;;;;;;;6.22;1.98;;;18.50;94.40;;;;;;5025532;28;20807;-40
2022/06/12 06:29:23;;;;;;;8.07;2.10;;;18.60;94.40;;;;;;5027261;28;20289;-41
2022/06/12 06:31:54;;;;;;;13.43;2.83;;;18.70;94.40;;;;;;5024977;28;20785;-40
2022/06/12 06:34:21;;;;;;;8.68;2.35;;;18.70;94.50;;;;;;5023557;28;20196;-40
2022/06/12 06:36:50;;;;;;;12.57;3.08;;;18.80;94.60;;;;;;5025358;28;20262;-41
2022/06/12 06:39:17;;;;;;;8.57;2.80;;;18.80;94.50;;;;;;5026481;28;20282;-40
2022/06/12 06:41:49;;;;;;;10.27;2.70;;;18.90;94.60;;;;;;5026369;28;20699;-40
2022/06/12 06:47:05;;;;;;;10.05;3.20;;;19.00;95.00;;;;;;5021692;28;20292;-55
2022/06/12 06:49:32;;;;;;;7.32;2.55;;;19.10;94.80;;;;;;5031932;28;20258;-51
2022/06/12 06:52:02;;;;;;;10.80;3.13;;;19.10;94.80;;;;;;5025920;28;20404;-49
2022/06/12 06:54:32;;;;;;;12.68;3.75;;;19.20;94.90;;;;;;5024579;28;20205;-50
2022/06/12 06:57:05;;;;;;;11.18;3.08;;;19.30;95.00;;;;;;5024077;28;20236;-50
2022/06/12 06:59:33;;;;;;;12.68;3.25;;;19.30;95.00;;;;;;5026869;28;20733;-50
2022/06/12 07:02:03;;;;;;;13.73;3.85;;;19.40;95.10;;;;;;5026561;28;20651;-49
2022/06/12 07:04:32;;;;;;;12.25;3.33;;;19.50;95.20;;;;;;5025448;28;20221;-48
2022/06/12 07:07:02;;;;;;;9.68;3.15;;;19.50;95.20;;;;;;5036479;28;20199;-49
2022/06/12 07:09:29;;;;;;;11.40;3.38;;;19.60;95.30;;;;;;5025251;28;20764;-50
2022/06/12 07:11:57;;;;;;;12.02;4.28;;;19.70;95.40;;;;;;5027565;28;20630;-48
2022/06/12 07:14:25;;;;;;;11.57;3.47;;;19.90;95.60;;;;;;5024426;28;20247;-48
2022/06/12 07:16:55;;;;;;;12.10;3.00;;;20.00;95.50;;;;;;5026959;28;20204;-49
2022/06/12 07:19:26;;;;;;;10.40;3.13;;;20.00;95.70;;;;;;5014895;28;20214;-50
2022/06/12 07:21:56;;;;;;;13.18;3.88;;;20.10;95.60;;;;;;5018679;28;20743;-50
2022/06/12 07:24:29;;;;;;;14.15;3.53;;;20.10;95.70;;;;;;5022155;28;20664;-49
2022/06/12 07:26:56;;;;;;;11.63;2.90;;;20.20;95.60;;;;;;5025800;28;20209;-50
2022/06/12 07:29:24;;;;;;;14.23;3.80;;;20.20;95.60;;;;;;5019526;28;20240;-50
2022/06/12 07:31:51;;;;;;;8.95;3.28;;;20.20;95.70;;;;;;5025417;28;20672;-49
2022/06/12 07:34:19;;;;;;;11.25;3.03;;;20.20;95.70;;;;;;5025435;28;20450;-50
2022/06/12 07:36:52;;;;;;;12.32;3.55;;;20.20;95.80;;;;;;5018708;28;20197;-50
2022/06/12 07:39:29;;;;;;;11.05;3.35;;;20.20;95.70;;;;;;5024937;28;20232;-49
2022/06/12 07:41:59;;;;;;;9.63;3.10;;;20.30;95.80;;;;;;5026721;28;20299;-49
2022/06/12 07:44:33;;;;;;;10.13;2.88;;;20.30;95.80;;;;;;5024665;28;20647;-50
2022/06/12 07:47:01;;;;;;;9.88;3.00;;;20.30;95.80;;;;;;5026859;28;20197;-50
2022/06/12 07:49:30;;;;;;;13.57;3.50;;;20.30;95.80;;;;;;5026625;28;20203;-51
2022/06/12 07:52:02;;;;;;;8.20;2.90;;;20.30;95.80;;;;;;5025618;28;20213;-49
2022/06/12 07:54:30;;;;;;;11.38;3.13;;;20.40;95.90;;;;;;5026165;28;20209;-49
2022/06/12 07:57:04;;;;;;;10.73;3.08;;;20.40;95.80;;;;;;5026402;28;20255;-37
2022/06/12 07:59:33;;;;;;;9.40;2.80;;;20.40;95.80;;;;;;5023772;28;20221;-38
2022/06/12 08:02:03;;;;;;;9.80;3.20;;;20.40;95.80;;;;;;5024924;28;20769;-50
2022/06/12 08:04:33;;;;;;;8.25;2.78;;;20.40;95.80;;;;;;5027211;28;20317;-49
2022/06/12 08:07:00;;;;;;;8.07;2.42;;;20.40;95.80;;;;;;5034391;28;20496;-49
2022/06/12 08:09:27;;;;;;;10.40;3.10;;;20.50;95.80;;;;;;5036857;28;20203;-50
2022/06/12 08:11:57;;;;;;;8.18;2.60;;;20.50;95.80;;;;;;5022851;28;20267;-50
2022/06/12 08:14:26;;;;;;;7.60;2.10;;;20.50;95.80;;;;;;5026872;28;20200;-51
2022/06/12 08:16:54;;;;;;;8.82;2.47;;;20.50;95.80;;;;;;5027370;28;20574;-50
2022/06/12 08:22:10;;;;;;;8.73;2.22;;;20.60;95.80;;;;;;5028737;28;20527;-49
2022/06/12 08:24:40;;;;;;;7.53;2.70;;;20.60;95.80;;;;;;5028758;28;20236;-47
2022/06/12 08:27:07;;;;;;;8.05;2.38;;;20.60;95.80;;;;;;5029387;28;20201;-49
2022/06/12 08:29:35;;;;;;;7.80;2.70;;;20.70;95.80;;;;;;5026488;28;20661;-49
2022/06/12 08:32:21;;;;;;;11.43;2.80;;;20.70;95.80;;;;;;5028189;28;20189;-50
2022/06/12 08:35:02;;;;;;;10.60;2.78;;;20.70;95.90;;;;;;5021602;28;20209;-50
2022/06/12 08:37:36;;;;;;;11.90;3.00;;;20.70;95.90;;;;;;5021666;28;20684;-50
2022/06/12 08:40:09;;;;;;;5.70;2.00;;;20.80;96.00;;;;;;5029183;28;20259;-50
2022/06/12 08:42:52;;;;;;;9.75;2.83;;;20.80;96.00;;;;;;5020734;28;20224;-49
2022/06/12 08:45:26;;;;;;;9.35;2.67;;;20.80;96.30;;;;;;5027858;28;20224;-49
2022/06/12 08:48:28;;;;;;;7.47;2.60;;;20.80;96.00;;;;;;5029799;28;20319;-49
2022/06/12 08:51:09;;;;;;;6.75;2.22;;;20.90;96.10;;;;;;5020630;28;20220;-48
2022/06/12 08:54:04;;;;;;;8.95;2.00;;;20.90;96.00;;;;;;5025249;28;20201;-50
2022/06/12 08:56:39;;;;;;;7.32;2.30;;;21.00;96.10;;;;;;5019821;28;20328;-49
2022/06/12 08:59:09;;;;;;;6.13;2.17;;;21.00;96.10;;;;;;5027876;28;20227;-49
2022/06/12 09:01:41;;;;;;;10.13;2.80;;;21.00;96.00;;;;;;5027528;28;20292;-50
2022/06/12 09:04:12;;;;;;;9.02;2.60;;;21.10;96.10;;;;;;5032141;28;20231;-37
2022/06/12 09:06:57;;;;;;;9.88;2.72;;;21.10;96.00;;;;;;5044386;28;20229;-37
2022/06/12 09:09:36;;;;;;;8.02;2.25;;;21.20;96.00;;;;;;5025304;28;20201;-37
2022/06/12 09:12:32;;;;;;;5.32;2.42;;;21.20;96.00;;;;;;5023963;28;20205;-37
2022/06/12 09:15:36;;;;;;;8.25;2.10;;;21.30;96.00;;;;;;5025198;28;20726;-37
2022/06/12 09:18:22;;;;;;;5.90;2.05;;;21.30;96.00;;;;;;5028610;28;20693;-36
2022/06/12 09:21:08;;;;;;;7.72;1.92;;;21.40;95.50;;;;;;5026423;28;20477;-36
2022/06/12 09:23:49;;;;;;;6.55;2.03;;;21.30;95.80;;;;;;5027100;28;20861;-38
2022/06/12 09:26:38;;;;;;;6.85;1.83;;;21.40;95.90;;;;;;5027059;28;20223;-38
2022/06/12 09:29:14;;;;;;;5.60;2.00;;;21.40;95.90;;;;;;5019005;28;20271;-38
2022/06/12 09:32:31;;;;;;;5.95;1.98;;;21.40;95.90;;;;;;5028833;28;20760;-38
2022/06/12 09:35:08;;;;;;;6.20;2.35;;;21.50;96.00;;;;;;4986372;28;20286;-38
2022/06/12 09:38:23;;;;;;;8.40;2.58;;;21.50;95.90;;;;;;5013151;28;20207;-40
2022/06/12 09:41:15;;;;;;;5.93;1.88;;;21.60;96.00;;;;;;5016057;28;20209;-38
2022/06/12 09:44:13;;;;;;;5.25;2.10;;;21.70;95.90;;;;;;5019678;28;20207;-38
2022/06/12 09:46:44;;;;;;;4.97;1.98;;;21.80;96.00;;;;;;5026717;28;20237;-38
2022/06/12 09:49:17;;;;;;;5.97;1.80;;;21.80;96.00;;;;;;5025389;28;20205;-38
2022/06/12 09:52:04;;;;;;;5.60;1.70;;;21.80;96.10;;;;;;5028059;28;20855;-38
2022/06/12 09:54:41;;;;;;;6.47;2.58;;;21.90;96.20;;;;;;5021257;28;20299;-38
2022/06/12 09:57:22;;;;;;;8.55;2.42;;;22.00;96.10;;;;;;5022829;28;20655;-38
2022/06/12 10:00:10;;;;;;;8.52;2.22;;;22.10;96.10;;;;;;5018824;28;20205;-38
2022/06/12 10:03:01;;;;;;;7.78;2.40;;;22.20;95.70;;;;;;5008647;28;20201;-38
2022/06/12 10:05:38;;;;;;;7.57;2.35;;;22.30;95.60;;;;;;5026594;28;20217;-38
2022/06/12 10:08:15;;;;;;;6.90;2.40;;;22.30;95.90;;;;;;5025205;28;20201;-38
2022/06/12 10:10:52;;;;;;;7.22;2.17;;;22.40;96.10;;;;;;5023650;28;20551;-38
2022/06/12 10:13:34;;;;;;;6.50;2.20;;;22.40;96.10;;;;;;5033616;28;20816;-38
2022/06/12 10:16:10;;;;;;;6.60;2.30;;;22.50;96.10;;;;;;5040794;28;20208;-38
2022/06/12 10:18:46;;;;;;;6.65;2.20;;;22.60;96.20;;;;;;5024316;28;20263;-38
2022/06/12 10:21:20;;;;;;;5.57;2.33;;;22.60;95.90;;;;;;5016292;28;20205;-38
2022/06/12 10:23:51;;;;;;;6.07;2.35;;;22.70;96.00;;;;;;5021687;28;20222;-37
2022/06/12 10:26:31;;;;;;;9.35;2.35;;;22.70;95.90;;;;;;5016585;28;20228;-37
2022/06/12 10:29:12;;;;;;;7.28;2.35;;;22.70;95.90;;;;;;5025008;28;20201;-38
2022/06/12 10:31:55;;;;;;;7.03;2.10;;;22.70;95.90;;;;;;5024050;28;20251;-38
2022/06/12 10:34:28;;;;;;;8.40;2.88;;;22.80;96.00;;;;;;5027481;28;20201;-38
2022/06/12 10:37:08;;;;;;;7.28;2.35;;;22.80;96.00;;;;;;5027357;28;20316;-38
2022/06/12 10:39:40;;;;;;;7.38;2.17;;;22.80;96.10;;;;;;5025867;28;20591;-38
2022/06/12 10:42:35;;;;;;;8.50;2.67;;;22.90;96.20;;;;;;5023491;28;20207;-38
2022/06/12 10:45:05;;;;;;;5.57;2.10;;;23.00;96.10;;;;;;5019469;28;20259;-38
2022/06/12 10:47:44;;;;;;;6.47;2.20;;;23.00;96.00;;;;;;5027513;28;20255;-38
2022/06/12 10:50:19;;;;;;;7.32;2.47;;;23.00;96.10;;;;;;5022651;28;20212;-38
2022/06/12 10:52:54;;;;;;;8.48;1.95;;;23.10;95.70;;;;;;5017767;28;20287;-38
2022/06/12 10:55:31;;;;;;;6.68;2.42;;;23.10;96.00;;;;;;5024595;28;20208;-38
2022/06/12 10:58:30;;;;;;;7.80;2.25;;;23.20;95.80;;;;;;5027086;28;20240;-50
2022/06/12 11:01:04;;;;;;;6.43;2.33;;;23.20;95.70;;;;;;5000060;28;20259;-51
2022/06/12 11:03:53;;;;;;;4.53;1.73;;;23.20;95.40;;;;;;5010763;28;20556;-49
2022/06/12 11:06:39;;;;;;;6.38;2.13;;;23.20;95.60;;;;;;5018857;28;20687;-49
2022/06/12 11:09:15;;;;;;;4.40;2.03;;;23.20;95.60;;;;;;5026590;28;20211;-49
2022/06/12 11:12:13;;;;;;;5.18;1.85;;;23.20;95.60;;;;;;5025720;28;20274;-50
2022/06/12 11:15:15;;;;;;;5.95;1.90;;;23.10;95.30;;;;;;5019265;28;20753;-50
2022/06/12 11:17:52;;;;;;;6.90;1.90;;;23.10;95.70;;;;;;5003828;28;20205;-50
2022/06/12 11:21:00;;;;;;;6.70;1.80;;;23.10;95.40;;;;;;5021959;28;20217;-50
2022/06/12 11:23:48;;;;;;;5.18;2.17;;;23.10;95.60;;;;;;5023744;28;20752;-49
2022/06/12 11:26:25;;;;;;;5.55;2.00;;;23.20;95.30;;;;;;5014719;28;20251;-50
2022/06/12 11:29:24;;;;;;;6.53;2.60;;;23.20;95.40;;;;;;5058166;28;20231;-50
2022/06/12 11:32:06;;;;;;;5.35;2.05;;;23.20;95.20;;;;;;5024575;28;20208;-49
2022/06/12 11:34:49;;;;;;;8.40;2.20;;;23.20;95.10;;;;;;5025219;28;20201;-51
2022/06/12 11:37:40;;;;;;;5.63;2.05;;;23.20;95.20;;;;;;5009070;28;20607;-38
2022/06/12 11:40:19;;;;;;;4.72;1.80;;;23.20;95.00;;;;;;5021362;28;20220;-37
2022/06/12 11:42:52;;;;;;;4.57;1.67;;;23.30;95.00;;;;;;5025196;28;20201;-38
2022/06/12 11:46:05;;;;;;;5.95;2.10;;;23.30;95.20;;;;;;5025492;28;20268;-36
2022/06/12 11:49:08;;;;;;;7.63;2.05;;;23.40;95.40;;;;;;5026861;28;20217;-36
2022/06/12 11:51:50;;;;;;;5.18;1.88;;;23.50;95.50;;;;;;5014199;28;20304;-38
2022/06/12 11:54:45;;;;;;;4.13;2.00;;;23.50;95.10;;;;;;5024816;28;20874;-38
2022/06/12 11:57:37;;;;;;;6.78;2.10;;;23.60;95.00;;;;;;5027319;28;20243;-36
2022/06/12 12:00:13;;;;;;;6.82;2.25;;;23.70;95.00;;;;;;5027233;28;20205;-37
2022/06/12 12:02:50;;;;;;;6.80;1.92;;;23.70;94.80;;;;;;5027589;28;20267;-38
2022/06/12 12:05:37;;;;;;;7.28;2.35;;;23.70;94.80;;;;;;5022983;28;20215;-38
2022/06/12 12:08:35;;;;;;;6.35;2.20;;;23.80;94.90;;;;;;5019120;28;20283;-37
2022/06/12 12:11:08;;;;;;;6.88;2.13;;;23.80;95.20;;;;;;5025872;28;20301;-36
2022/06/12 12:13:45;;;;;;;4.82;2.05;;;23.90;95.40;;;;;;5026373;28;20236;-38
2022/06/12 12:16:21;;;;;;;5.15;2.00;;;24.00;95.40;;;;;;5028924;28;21053;-37
2022/06/12 12:18:57;;;;;;;6.03;1.90;;;24.10;94.10;;;;;;5031032;28;20205;-38
2022/06/12 12:21:46;;;;;;;4.70;1.92;;;24.20;95.00;;;;;;5030533;28;20192;-38
2022/06/12 12:24:25;;;;;;;4.75;2.00;;;24.20;95.00;;;;;;5031193;28;20251;-37
2022/06/12 12:26:57;;;;;;;6.03;2.05;;;24.30;94.90;;;;;;5028791;28;20232;-37
2022/06/12 12:29:29;;;;;;;5.43;1.80;;;24.30;94.70;;;;;;5026921;28;20205;-37
2022/06/12 12:31:58;;;;;;;5.15;1.90;;;24.40;94.60;;;;;;5027721;28;20216;-36
2022/06/12 12:34:27;;;;;;;6.00;2.08;;;24.40;94.70;;;;;;5031646;28;20209;-37
2022/06/12 12:42:35;;;;;;;5.68;2.38;;;24.60;94.70;;;;;;5026611;28;20202;-37
2022/06/12 12:45:11;;;;;;;4.50;1.98;;;24.60;94.10;;;;;;5027275;28;20284;-38
2022/06/12 12:47:39;;;;;;;9.27;2.20;;;24.60;94.60;;;;;;5026205;28;20227;-39
2022/06/12 12:50:11;;;;;;;4.63;1.77;;;24.60;94.60;;;;;;5011159;28;20689;-39
2022/06/12 12:52:46;;;;;;;3.05;1.40;;;24.70;94.80;;;;;;5023782;28;20279;-38
2022/06/12 12:55:38;;;;;;;4.90;2.13;;;24.70;94.40;;;;;;5040896;28;20637;-49
2022/06/12 12:58:18;;;;;;;8.90;2.03;;;24.80;94.10;;;;;;5026798;28;20216;-49
2022/06/12 13:00:48;;;;;;;5.15;1.83;;;24.80;93.20;;;;;;5023608;28;20567;-48
2022/06/12 13:03:32;;;;;;;8.05;2.42;;;24.70;93.80;;;;;;5020425;28;20197;-49
2022/06/12 13:06:18;;;;;;;4.72;2.08;;;24.70;93.20;;;;;;5025597;28;20674;-48
2022/06/12 13:09:19;;;;;;;4.80;1.80;;;24.70;92.30;;;;;;5023294;28;20209;-47
2022/06/12 13:12:07;;;;;;;3.63;2.08;;;24.80;94.00;;;;;;5022245;28;20200;-38
2022/06/12 13:15:11;;;;;;;8.77;2.53;;;24.70;94.20;;;;;;5026452;28;20197;-38
2022/06/12 13:18:24;;;;;;;5.10;2.20;;;24.80;94.00;;;;;;5028959;28;20228;-39
2022/06/12 13:21:17;;;;;;;6.00;2.30;;;24.80;94.10;;;;;;5024874;28;20745;-38
2022/06/12 13:23:59;;;;;;;6.07;2.10;;;24.90;94.40;;;;;;5022869;28;20201;-38
2022/06/12 13:26:30;;;;;;;7.05;2.05;;;25.00;93.60;;;;;;5023459;28;20340;-37
2022/06/12 13:29:03;;;;;;;5.47;2.35;;;25.00;93.50;;;;;;5019047;28;20275;-38
2022/06/12 13:31:34;;;;;;;4.88;2.00;;;25.00;93.40;;;;;;5017973;28;20675;-39
2022/06/12 13:34:04;;;;;;;4.07;1.80;;;25.00;93.80;;;;;;5032936;28;20598;-38
2022/06/12 13:36:40;;;;;;;6.10;2.35;;;25.00;93.90;;;;;;5023227;28;20311;-37
2022/06/12 13:39:29;;;;;;;6.32;1.90;;;25.00;93.90;;;;;;5028427;28;20209;-38
2022/06/12 13:42:05;;;;;;;6.88;2.28;;;25.00;93.00;;;;;;5019426;28;20196;-38
2022/06/12 13:44:35;;;;;;;6.63;2.03;;;25.00;93.40;;;;;;5025439;28;20219;-38
2022/06/12 13:47:25;;;;;;;5.05;1.90;;;24.90;93.10;;;;;;5027462;28;20256;-38
2022/06/12 13:50:30;;;;;;;5.90;2.13;;;24.90;93.80;;;;;;5014764;28;20220;-38
2022/06/12 13:53:04;;;;;;;5.70;1.80;;;25.00;93.70;;;;;;5017634;28;20208;-37
2022/06/12 13:55:51;;;;;;;4.25;1.70;;;25.00;92.60;;;;;;5025966;28;20197;-37
2022/06/12 13:58:34;;;;;;;4.90;1.90;;;25.00;93.50;;;;;;5027964;28;20782;-37